createdAt,value
2017-08-08T00:07:19.810Z,0
2017-08-08T00:17:35.413Z,0
2017-08-08T00:27:50.425Z,0
2017-08-08T00:38:04.891Z,0
2017-08-08T00:48:19.221Z,0
2017-08-08T00:58:34.134Z,0
2017-08-08T01:08:49.474Z,0
2017-08-08T01:19:03.924Z,0
2017-08-08T01:29:19.125Z,0
2017-08-08T01:39:33.924Z,0
2017-08-08T01:49:47.665Z,0
2017-08-08T02:00:02.725Z,0
2017-08-08T02:10:18.104Z,0
2017-08-08T02:20:33.117Z,0
2017-08-08T02:30:48.082Z,0
2017-08-08T02:41:02.861Z,0
2017-08-08T02:51:18.080Z,0
2017-08-08T03:01:33.754Z,0
2017-08-08T03:11:48.949Z,0
2017-08-08T03:22:03.508Z,0
2017-08-08T03:32:18.411Z,4
2017-08-08T03:42:32.187Z,32
2017-08-08T03:52:45.974Z,100
2017-08-08T04:03:01.199Z,232
2017-08-08T04:13:16.338Z,504
2017-08-08T04:23:31.417Z,1044
2017-08-08T04:33:46.883Z,1556
2017-08-08T04:44:01.710Z,2740
2017-08-08T04:54:16.502Z,3404
2017-08-08T05:04:31.938Z,3548
2017-08-08T05:14:46.097Z,5700
2017-08-08T05:24:59.880Z,7356
2017-08-08T05:35:14.062Z,8884
2017-08-08T05:45:28.281Z,9472
2017-08-08T05:55:42.947Z,7536
2017-08-08T06:05:56.823Z,7936
2017-08-08T06:16:11.623Z,10172
2017-08-08T06:26:26.590Z,11008
2017-08-08T06:36:40.487Z,10444
2017-08-08T06:46:56.206Z,12832
2017-08-08T06:57:10.913Z,15776
2017-08-08T07:07:25.395Z,28608
2017-08-08T07:17:41.040Z,35200
2017-08-08T07:27:55.923Z,43168
2017-08-08T07:38:09.964Z,30464
2017-08-08T07:48:25.371Z,24672
2017-08-08T07:58:40.635Z,29216
2017-08-08T08:08:55.492Z,28128
2017-08-08T08:19:11.273Z,30432
2017-08-08T08:29:26.303Z,33088
2017-08-08T08:39:40.297Z,32992
2017-08-08T08:49:54.358Z,31008
2017-08-08T09:00:09.824Z,30496
2017-08-08T09:10:24.886Z,32320
2017-08-08T09:20:40.502Z,34496
2017-08-08T09:30:55.232Z,36224
2017-08-08T09:41:10.217Z,38464
2017-08-08T09:51:25.920Z,32032
2017-08-08T10:01:40.678Z,26272
2017-08-08T10:11:55.877Z,24160
2017-08-08T10:22:09.860Z,21952
2017-08-08T10:32:24.312Z,22752
2017-08-08T10:42:38.891Z,19744
2017-08-08T10:52:53.458Z,23424
2017-08-08T11:03:08.136Z,20544
2017-08-08T11:13:23.226Z,15676
2017-08-08T11:23:37.559Z,15236
2017-08-08T11:33:51.903Z,17120
2017-08-08T11:44:06.838Z,24960
2017-08-08T11:54:22.191Z,26656
2017-08-08T12:04:37.597Z,22016
2017-08-08T12:14:51.565Z,11600
2017-08-08T12:25:05.618Z,15132
2017-08-08T12:35:19.845Z,25312
2017-08-08T12:45:35.531Z,24768
2017-08-08T12:55:50.286Z,21408
2017-08-08T13:06:05.976Z,13980
2017-08-08T13:16:21.545Z,9544
2017-08-08T13:26:36.806Z,8580
2017-08-08T13:36:51.189Z,12044
2017-08-08T13:47:05.496Z,10892
2017-08-08T13:57:20.001Z,7836
2017-08-08T14:07:35.177Z,7076
2017-08-08T14:17:49.342Z,4204
2017-08-08T14:28:03.698Z,9376
2017-08-08T14:38:19.737Z,5996
2017-08-08T14:48:34.723Z,7984
2017-08-08T14:58:48.597Z,4916
2017-08-08T15:09:03.510Z,16528
2017-08-08T15:19:17.909Z,11772
2017-08-08T15:29:33.063Z,53824
2017-08-08T15:39:48.798Z,27296
2017-08-08T15:50:04.357Z,33408
2017-08-08T16:00:19.776Z,29376
2017-08-08T16:10:34.684Z,26144
2017-08-08T16:20:48.996Z,16000
2017-08-08T16:31:03.384Z,4664
2017-08-08T16:41:18.434Z,5608
2017-08-08T16:51:34.005Z,3436
2017-08-08T17:01:48.261Z,6840
2017-08-08T17:12:03.693Z,2628
2017-08-08T17:22:18.047Z,1984
2017-08-08T17:32:32.812Z,2688
2017-08-08T17:42:48.155Z,2552
2017-08-08T17:53:02.959Z,6032
2017-08-08T18:03:17.846Z,4368
2017-08-08T18:13:31.638Z,3900
2017-08-08T18:23:46.554Z,2920
2017-08-08T18:34:00.688Z,1688
2017-08-08T18:44:15.952Z,816
2017-08-08T18:54:31.379Z,932
2017-08-08T19:04:46.578Z,292
2017-08-08T19:15:02.053Z,84
2017-08-08T19:25:17.195Z,52
2017-08-08T19:35:32.230Z,8
2017-08-08T19:45:47.319Z,0
2017-08-08T19:56:02.765Z,0
2017-08-08T20:06:18.067Z,0
2017-08-08T20:16:31.856Z,0
2017-08-08T20:26:46.289Z,0
2017-08-08T20:37:01.572Z,0
2017-08-08T20:47:17.025Z,0
2017-08-08T20:57:31.611Z,0
2017-08-08T21:07:47.007Z,0
2017-08-08T21:18:02.123Z,0
2017-08-08T21:28:17.038Z,0
2017-08-08T21:38:32.132Z,0
2017-08-08T21:48:47.576Z,0
2017-08-08T21:59:01.583Z,0
2017-08-08T22:09:15.410Z,0
2017-08-08T22:19:29.828Z,0
2017-08-08T22:29:45.274Z,0
2017-08-08T22:39:59.332Z,0
2017-08-08T22:50:14.993Z,0
2017-08-08T23:00:28.952Z,0
2017-08-08T23:10:43.841Z,0
2017-08-08T23:20:58.107Z,0
2017-08-08T23:31:12.413Z,0
2017-08-08T23:41:26.314Z,0
2017-08-08T23:51:41.309Z,0
